createdAt,value
2023-05-11T00:01:10.026Z,9.35
2023-05-11T00:03:37.344Z,11.68
2023-05-11T00:06:04.734Z,9.15
2023-05-11T00:08:32.073Z,9.43
2023-05-11T00:11:00.965Z,10.43
2023-05-11T00:13:28.731Z,10.88
2023-05-11T00:15:56.140Z,11.00
2023-05-11T00:18:23.507Z,11.98
2023-05-11T00:20:50.930Z,11.13
2023-05-11T00:23:18.206Z,11.13
2023-05-11T00:25:45.473Z,10.70
2023-05-11T00:28:13.568Z,12.18
2023-05-11T00:30:41.475Z,11.32
2023-05-11T00:33:08.728Z,9.57
2023-05-11T00:35:36.028Z,11.18
2023-05-11T00:38:03.482Z,10.75
2023-05-11T00:40:33.754Z,8.80
2023-05-11T00:43:01.229Z,10.27
2023-05-11T00:45:28.668Z,9.73
2023-05-11T00:47:56.038Z,10.15
2023-05-11T00:50:23.322Z,10.80
2023-05-11T00:52:51.229Z,11.00
2023-05-11T00:55:21.421Z,11.55
2023-05-11T00:57:49.044Z,11.05
2023-05-11T01:00:16.617Z,10.43
2023-05-11T01:02:45.736Z,10.18
2023-05-11T01:05:13.255Z,10.63
2023-05-11T01:07:50.270Z,10.13
2023-05-11T01:10:36.323Z,10.63
2023-05-11T01:13:23.818Z,10.63
2023-05-11T01:15:56.425Z,10.55
2023-05-11T01:18:29.767Z,11.90
2023-05-11T01:21:01.430Z,11.73
2023-05-11T01:23:31.494Z,11.00
2023-05-11T01:26:17.674Z,10.93
2023-05-11T01:28:44.911Z,10.70
2023-05-11T01:31:13.474Z,10.95
2023-05-11T01:33:44.982Z,11.35
2023-05-11T01:36:13.641Z,11.80
2023-05-11T01:38:41.612Z,12.18
2023-05-11T01:41:15.033Z,12.32
2023-05-11T01:43:43.706Z,11.60
2023-05-11T01:46:13.279Z,12.18
2023-05-11T01:48:41.679Z,12.35
2023-05-11T01:51:09.859Z,11.98
2023-05-11T01:53:38.656Z,11.43
2023-05-11T01:56:07.184Z,12.40
2023-05-11T01:58:35.928Z,12.90
2023-05-11T02:01:04.496Z,13.18
2023-05-11T02:03:36.601Z,13.40
2023-05-11T02:06:05.614Z,12.75
2023-05-11T02:08:33.175Z,12.40
2023-05-11T02:11:01.696Z,12.57
2023-05-11T02:13:29.600Z,13.25
2023-05-11T02:15:57.458Z,13.13
2023-05-11T02:18:25.293Z,13.35
2023-05-11T02:20:52.835Z,12.23
2023-05-11T02:23:20.603Z,11.88
2023-05-11T02:25:48.073Z,11.85
2023-05-11T02:28:15.451Z,12.65
2023-05-11T02:30:46.838Z,12.75
2023-05-11T02:33:17.686Z,12.25
2023-05-11T02:35:45.206Z,12.43
2023-05-11T02:38:13.100Z,12.57
2023-05-11T02:40:59.544Z,12.55
2023-05-11T02:43:30.241Z,11.73
2023-05-11T02:46:02.483Z,12.05
2023-05-11T02:48:31.472Z,11.65
2023-05-11T02:50:59.232Z,11.82
2023-05-11T02:53:28.346Z,11.27
2023-05-11T02:55:56.099Z,11.63
2023-05-11T02:58:23.926Z,10.93
2023-05-11T03:00:51.629Z,10.25
2023-05-11T03:03:19.038Z,9.73
2023-05-11T03:05:46.422Z,10.38
2023-05-11T03:08:13.872Z,9.35
2023-05-11T03:10:41.433Z,9.20
2023-05-11T03:13:09.399Z,8.27
2023-05-11T03:15:37.435Z,9.13
2023-05-11T03:18:05.711Z,8.38
2023-05-11T03:20:34.285Z,9.13
2023-05-11T03:23:01.644Z,9.02
2023-05-11T03:25:29.273Z,8.38
2023-05-11T03:27:58.457Z,8.27
2023-05-11T03:30:27.198Z,8.30
2023-05-11T03:32:54.590Z,8.80
2023-05-11T03:35:25.824Z,8.48
2023-05-11T03:40:20.882Z,7.35
2023-05-11T03:42:48.603Z,8.18
2023-05-11T03:45:17.704Z,7.95
2023-05-11T03:47:46.112Z,7.28
2023-05-11T03:50:13.876Z,6.90
2023-05-11T03:52:41.451Z,6.82
2023-05-11T03:55:09.248Z,6.85
2023-05-11T03:57:36.826Z,6.82
2023-05-11T04:00:04.562Z,6.55
2023-05-11T04:02:31.875Z,6.50
2023-05-11T04:04:59.144Z,6.57
2023-05-11T04:07:26.570Z,5.80
2023-05-11T04:09:53.826Z,5.80
2023-05-11T04:12:21.461Z,5.22
2023-05-11T04:14:48.752Z,5.38
2023-05-11T04:17:16.025Z,5.70
2023-05-11T04:19:43.296Z,5.80
2023-05-11T04:22:12.279Z,5.75
2023-05-11T04:24:39.827Z,5.57
2023-05-11T04:27:07.122Z,5.47
2023-05-11T04:29:34.666Z,6.25
2023-05-11T04:32:02.009Z,5.90
2023-05-11T04:34:29.263Z,6.10
2023-05-11T04:36:56.541Z,6.00
2023-05-11T04:39:23.792Z,6.50
2023-05-11T04:41:51.067Z,5.82
2023-05-11T04:44:18.341Z,6.60
2023-05-11T04:46:45.740Z,5.93
2023-05-11T04:49:13.028Z,5.47
2023-05-11T04:51:40.333Z,5.70
2023-05-11T04:54:07.679Z,6.45
2023-05-11T04:56:36.613Z,5.65
2023-05-11T04:59:05.340Z,5.70
2023-05-11T05:01:33.048Z,5.70
2023-05-11T05:04:00.417Z,5.30
2023-05-11T05:06:27.844Z,6.20
2023-05-11T05:08:55.103Z,5.82
2023-05-11T05:11:22.370Z,6.40
2023-05-11T05:13:49.666Z,5.90
2023-05-11T05:16:17.645Z,6.30
2023-05-11T05:18:45.031Z,6.35
2023-05-11T05:21:12.386Z,6.60
2023-05-11T05:23:39.636Z,5.47
2023-05-11T05:26:06.870Z,6.10
2023-05-11T05:28:35.966Z,6.10
2023-05-11T05:31:03.288Z,6.57
2023-05-11T05:33:30.770Z,5.45
2023-05-11T05:35:58.062Z,5.65
2023-05-11T05:38:25.401Z,5.78
2023-05-11T05:40:52.676Z,6.28
2023-05-11T05:43:19.964Z,4.90
2023-05-11T05:45:47.271Z,5.97
2023-05-11T05:48:14.559Z,5.65
2023-05-11T05:50:41.822Z,5.70
2023-05-11T05:53:09.165Z,5.25
2023-05-11T05:55:36.476Z,5.40
2023-05-11T05:58:03.738Z,5.35
2023-05-11T06:00:31.263Z,5.80
2023-05-11T06:02:59.061Z,5.72
2023-05-11T06:05:26.699Z,5.57
2023-05-11T06:08:05.871Z,4.70
2023-05-11T06:10:37.217Z,6.22
2023-05-11T06:13:04.765Z,5.47
2023-05-11T06:15:32.154Z,5.97
2023-05-11T06:17:59.471Z,4.88
2023-05-11T06:20:26.825Z,5.70
2023-05-11T06:22:54.099Z,5.68
2023-05-11T06:25:21.753Z,5.70
2023-05-11T06:27:49.010Z,6.35
2023-05-11T06:30:16.441Z,7.10
2023-05-11T06:32:43.976Z,6.07
2023-05-11T06:35:11.310Z,6.63
2023-05-11T06:37:38.592Z,6.25
2023-05-11T06:40:06.793Z,5.75
2023-05-11T06:42:34.191Z,6.30
2023-05-11T06:45:01.582Z,5.65
2023-05-11T06:47:29.629Z,5.28
2023-05-11T06:49:56.927Z,6.40
2023-05-11T06:52:24.177Z,4.88
2023-05-11T06:54:51.640Z,4.60
2023-05-11T06:57:19.045Z,5.32
2023-05-11T06:59:46.382Z,5.47
2023-05-11T07:02:13.672Z,4.82
2023-05-11T07:04:41.062Z,5.38
2023-05-11T07:07:11.325Z,5.03
2023-05-11T07:09:40.072Z,4.50
2023-05-11T07:12:08.683Z,4.35
2023-05-11T07:14:35.954Z,3.75
2023-05-11T07:17:03.925Z,3.72
2023-05-11T07:19:31.306Z,3.08
2023-05-11T07:21:58.578Z,3.10
2023-05-11T07:24:26.061Z,3.40
2023-05-11T07:26:53.370Z,3.40
2023-05-11T07:29:21.127Z,3.90
2023-05-11T07:31:48.587Z,3.42
2023-05-11T07:34:16.369Z,3.20
2023-05-11T07:36:43.782Z,3.58
2023-05-11T07:39:11.157Z,3.65
2023-05-11T07:41:38.467Z,3.22
2023-05-11T07:44:05.853Z,3.67
2023-05-11T07:46:33.151Z,3.50
2023-05-11T07:49:14.389Z,3.47
2023-05-11T07:51:46.037Z,3.45
2023-05-11T07:54:13.324Z,3.17
2023-05-11T07:56:40.573Z,3.47
2023-05-11T07:59:07.814Z,3.08
2023-05-11T08:01:35.122Z,3.45
2023-05-11T08:04:02.555Z,4.07
2023-05-11T08:06:30.510Z,3.58
2023-05-11T08:08:57.801Z,3.42
2023-05-11T08:11:25.071Z,3.58
2023-05-11T08:13:52.971Z,3.50
2023-05-11T08:16:20.254Z,4.57
2023-05-11T08:18:47.788Z,3.70
2023-05-11T08:21:15.481Z,3.33
2023-05-11T08:23:44.629Z,3.38
2023-05-11T08:26:12.474Z,3.45
2023-05-11T08:28:39.787Z,3.05
2023-05-11T08:31:07.076Z,2.80
2023-05-11T08:33:37.539Z,2.90
2023-05-11T08:36:06.437Z,2.30
2023-05-11T08:38:33.702Z,2.45
2023-05-11T08:41:02.237Z,2.70
2023-05-11T08:43:29.988Z,2.20
2023-05-11T08:45:58.561Z,2.30
2023-05-11T08:48:25.927Z,2.50
2023-05-11T08:50:53.225Z,2.08
2023-05-11T08:53:20.549Z,2.00
2023-05-11T08:55:48.881Z,2.38
2023-05-11T08:58:19.714Z,2.50
2023-05-11T09:00:47.296Z,2.42
2023-05-11T09:03:15.104Z,2.10
2023-05-11T09:05:43.747Z,1.75
2023-05-11T09:08:12.194Z,3.50
2023-05-11T09:10:39.540Z,3.88
2023-05-11T09:13:07.052Z,2.88
2023-05-11T09:18:04.936Z,2.92
2023-05-11T09:20:33.421Z,2.28
2023-05-11T09:23:01.123Z,2.33
2023-05-11T09:25:31.848Z,2.03
2023-05-11T09:30:26.599Z,2.17
2023-05-11T09:32:57.698Z,2.03
2023-05-11T09:35:35.234Z,1.83
2023-05-11T09:38:05.328Z,2.00
2023-05-11T09:40:34.707Z,2.50
2023-05-11T09:43:03.472Z,2.67
2023-05-11T09:45:44.073Z,2.60
2023-05-11T09:48:24.905Z,2.30
2023-05-11T09:50:53.992Z,2.50
2023-05-11T09:53:21.511Z,2.10
2023-05-11T09:55:52.323Z,2.25
2023-05-11T09:58:19.646Z,2.40
2023-05-11T10:00:53.846Z,2.10
2023-05-11T10:03:21.510Z,2.35
2023-05-11T10:05:59.528Z,2.40
2023-05-11T10:08:30.872Z,2.10
2023-05-11T10:10:58.702Z,2.10
2023-05-11T10:13:27.198Z,2.17
2023-05-11T10:15:55.818Z,2.10
2023-05-11T10:18:23.356Z,2.38
2023-05-11T10:20:50.987Z,1.90
2023-05-11T10:23:19.835Z,1.92
2023-05-11T10:25:48.087Z,2.30
2023-05-11T10:28:15.675Z,2.28
2023-05-11T10:30:44.336Z,1.95
2023-05-11T10:33:12.474Z,2.65
2023-05-11T10:35:40.133Z,2.45
2023-05-11T10:38:07.683Z,2.50
2023-05-11T10:40:39.427Z,2.28
2023-05-11T10:43:16.666Z,2.40
2023-05-11T10:46:00.135Z,2.50
2023-05-11T10:48:45.962Z,2.40
2023-05-11T10:51:53.120Z,2.67
2023-05-11T10:54:23.276Z,2.03
2023-05-11T10:57:00.412Z,2.03
2023-05-11T10:59:46.370Z,2.40
2023-05-11T11:02:13.922Z,2.33
2023-05-11T11:04:44.344Z,2.20
2023-05-11T11:07:13.382Z,2.50
2023-05-11T11:09:53.736Z,2.28
2023-05-11T11:12:22.079Z,2.10
2023-05-11T11:14:58.861Z,2.10
2023-05-11T11:17:28.055Z,1.85
2023-05-11T11:19:55.791Z,2.42
2023-05-11T11:22:35.649Z,1.90
2023-05-11T11:25:05.807Z,1.88
2023-05-11T11:27:42.486Z,2.10
2023-05-11T11:30:15.968Z,2.58
2023-05-11T11:32:45.527Z,2.20
2023-05-11T11:35:32.137Z,2.10
2023-05-11T11:38:03.389Z,2.10
2023-05-11T11:40:47.197Z,1.90
2023-05-11T11:43:19.736Z,2.25
2023-05-11T11:46:00.008Z,2.35
2023-05-11T11:48:35.705Z,2.20
2023-05-11T11:51:03.401Z,2.00
2023-05-11T11:53:37.325Z,1.95
2023-05-11T11:56:05.601Z,2.30
2023-05-11T11:58:42.092Z,2.10
2023-05-11T12:01:10.196Z,2.30
2023-05-11T12:03:37.862Z,2.05
2023-05-11T12:06:06.398Z,1.90
2023-05-11T12:08:33.646Z,2.38
2023-05-11T12:11:01.497Z,2.03
2023-05-11T12:13:29.236Z,2.10
2023-05-11T12:16:09.683Z,2.08
2023-05-11T12:18:37.228Z,2.10
2023-05-11T12:21:04.817Z,2.60
2023-05-11T12:23:32.562Z,1.90
2023-05-11T12:26:03.739Z,2.00
2023-05-11T12:28:31.077Z,2.08
2023-05-11T12:31:00.605Z,2.20
2023-05-11T12:33:28.389Z,1.83
2023-05-11T12:35:56.503Z,2.42
2023-05-11T12:38:23.850Z,1.90
2023-05-11T12:40:52.352Z,2.40
2023-05-11T12:43:20.352Z,2.13
2023-05-11T12:45:47.747Z,2.35
2023-05-11T12:48:15.371Z,2.22
2023-05-11T12:50:43.325Z,2.38
2023-05-11T12:53:17.582Z,2.10
2023-05-11T12:55:45.025Z,2.05
2023-05-11T12:58:13.772Z,1.88
2023-05-11T13:00:59.951Z,1.90
2023-05-11T13:03:28.388Z,2.30
2023-05-11T13:06:09.164Z,2.35
2023-05-11T13:08:37.373Z,2.30
2023-05-11T13:11:22.660Z,2.10
2023-05-11T13:13:50.471Z,2.03
2023-05-11T13:16:25.404Z,2.42
2023-05-11T13:19:12.493Z,2.55
2023-05-11T13:21:40.006Z,3.03
2023-05-11T13:24:07.408Z,2.65
2023-05-11T13:26:34.715Z,3.30
2023-05-11T13:29:10.804Z,3.08
2023-05-11T13:31:45.171Z,3.50
2023-05-11T13:34:12.648Z,3.28
2023-05-11T13:36:40.174Z,3.25
2023-05-11T13:39:07.624Z,3.20
2023-05-11T13:41:36.658Z,3.20
2023-05-11T13:44:04.054Z,3.33
2023-05-11T13:46:31.449Z,3.15
2023-05-11T13:49:00.464Z,3.33
2023-05-11T13:51:27.865Z,3.30
2023-05-11T13:53:55.135Z,3.08
2023-05-11T13:56:22.525Z,3.10
2023-05-11T13:58:49.780Z,3.10
2023-05-11T14:01:17.297Z,3.13
2023-05-11T14:03:44.663Z,3.20
2023-05-11T14:06:12.659Z,3.10
2023-05-11T14:08:39.883Z,3.60
2023-05-11T14:11:07.219Z,3.50
2023-05-11T14:13:34.571Z,3.25
2023-05-11T14:16:02.503Z,3.67
2023-05-11T14:18:29.914Z,3.17
2023-05-11T14:20:57.256Z,3.40
2023-05-11T14:23:24.498Z,3.00
2023-05-11T14:25:51.758Z,3.47
2023-05-11T14:28:19.009Z,3.20
2023-05-11T14:30:46.321Z,3.55
2023-05-11T14:33:13.815Z,3.30
2023-05-11T14:35:41.125Z,2.78
2023-05-11T14:38:08.509Z,2.92
2023-05-11T14:40:35.789Z,3.33
2023-05-11T14:43:03.061Z,3.42
2023-05-11T14:45:30.310Z,3.15
2023-05-11T14:48:00.399Z,3.38
2023-05-11T14:50:31.162Z,3.40
2023-05-11T14:53:04.394Z,3.38
2023-05-11T14:55:32.175Z,3.40
2023-05-11T15:01:01.259Z,3.53
2023-05-11T15:03:29.794Z,3.55
2023-05-11T15:05:57.289Z,3.00
2023-05-11T15:08:30.142Z,3.55
2023-05-11T15:10:58.192Z,3.67
2023-05-11T15:13:28.661Z,3.20
2023-05-11T15:15:56.476Z,3.50
2023-05-11T15:18:24.154Z,3.40
2023-05-11T15:20:51.443Z,3.25
2023-05-11T15:23:18.991Z,3.30
2023-05-11T15:25:46.328Z,3.22
2023-05-11T15:28:13.738Z,2.58
2023-05-11T15:30:42.183Z,2.92
2023-05-11T15:33:10.075Z,3.42
2023-05-11T15:35:38.028Z,3.10
2023-05-11T15:38:06.396Z,2.65
2023-05-11T15:40:34.009Z,3.25
2023-05-11T15:43:01.452Z,2.42
2023-05-11T15:45:29.646Z,2.50
2023-05-11T15:47:58.282Z,2.60
2023-05-11T15:50:26.333Z,2.90
2023-05-11T15:52:53.857Z,3.10
2023-05-11T15:55:21.188Z,2.60
2023-05-11T15:57:48.543Z,3.10
2023-05-11T16:00:16.741Z,2.88
2023-05-11T16:02:45.990Z,2.92
2023-05-11T16:05:13.452Z,2.65
2023-05-11T16:07:41.108Z,2.70
2023-05-11T16:10:08.894Z,3.05
2023-05-11T16:12:36.257Z,2.90
2023-05-11T16:15:03.617Z,2.67
2023-05-11T16:17:31.420Z,2.85
2023-05-11T16:20:00.510Z,2.47
2023-05-11T16:22:28.168Z,2.55
2023-05-11T16:24:55.449Z,2.90
2023-05-11T16:27:22.843Z,2.65
2023-05-11T16:29:51.243Z,2.97
2023-05-11T16:32:20.357Z,2.92
2023-05-11T16:34:47.708Z,3.30
2023-05-11T16:37:15.002Z,2.75
2023-05-11T16:39:42.555Z,2.65
2023-05-11T16:42:10.602Z,3.20
2023-05-11T16:44:37.911Z,2.95
2023-05-11T16:47:05.896Z,2.53
2023-05-11T16:49:33.549Z,3.00
2023-05-11T16:52:00.919Z,2.47
2023-05-11T16:54:28.371Z,2.80
2023-05-11T16:56:55.653Z,3.25
2023-05-11T16:59:22.918Z,2.63
2023-05-11T17:01:50.245Z,3.13
2023-05-11T17:04:17.681Z,2.70
2023-05-11T17:06:45.116Z,2.90
2023-05-11T17:09:12.863Z,2.33
2023-05-11T17:11:40.144Z,2.47
2023-05-11T17:14:07.417Z,2.85
2023-05-11T17:16:34.805Z,2.70
2023-05-11T17:19:02.149Z,3.40
2023-05-11T17:21:29.469Z,2.90
2023-05-11T17:23:56.944Z,2.85
2023-05-11T17:26:27.457Z,2.70
2023-05-11T17:29:00.306Z,2.95
2023-05-11T17:31:27.764Z,3.05
2023-05-11T17:33:55.400Z,3.08
2023-05-11T17:36:22.832Z,2.72
2023-05-11T17:38:51.409Z,3.00
2023-05-11T17:41:18.688Z,2.85
2023-05-11T17:43:47.687Z,2.72
2023-05-11T17:46:16.263Z,3.00
2023-05-11T17:48:43.623Z,3.03
2023-05-11T17:51:10.975Z,3.25
2023-05-11T17:53:38.432Z,3.45
2023-05-11T17:56:08.100Z,3.03
2023-05-11T17:58:35.616Z,3.20
2023-05-11T18:01:08.713Z,3.20
2023-05-11T18:03:36.265Z,2.97
2023-05-11T18:06:04.832Z,2.92
2023-05-11T18:08:32.949Z,3.42
2023-05-11T18:11:00.271Z,3.50
2023-05-11T18:13:28.774Z,3.30
2023-05-11T18:15:59.825Z,3.30
2023-05-11T18:20:55.035Z,3.47
2023-05-11T18:23:22.771Z,3.40
2023-05-11T18:25:50.056Z,3.58
2023-05-11T18:28:18.394Z,3.35
2023-05-11T18:30:45.776Z,3.15
2023-05-11T18:33:13.141Z,3.30
2023-05-11T18:35:41.762Z,3.72
2023-05-11T18:38:09.234Z,3.35
2023-05-11T18:40:36.728Z,14.48
2023-05-11T18:43:04.258Z,9.77
2023-05-11T18:45:33.176Z,9.05
2023-05-11T18:48:00.494Z,10.10
2023-05-11T18:50:29.787Z,7.32
2023-05-11T18:52:57.894Z,5.32
2023-05-11T18:55:26.838Z,5.35
2023-05-11T18:57:58.082Z,4.38
2023-05-11T19:00:25.614Z,3.95
2023-05-11T19:02:54.685Z,4.68
2023-05-11T19:05:22.480Z,4.55
2023-05-11T19:07:49.822Z,4.10
2023-05-11T19:10:18.184Z,4.40
2023-05-11T19:12:46.311Z,3.80
2023-05-11T19:15:13.550Z,4.00
2023-05-11T19:17:40.892Z,3.00
2023-05-11T19:20:08.658Z,3.83
2023-05-11T19:22:36.302Z,4.10
2023-05-11T19:25:03.637Z,5.70
2023-05-11T19:27:31.029Z,6.40
2023-05-11T19:29:58.674Z,4.63
2023-05-11T19:32:27.427Z,5.38
2023-05-11T19:34:55.159Z,4.40
2023-05-11T19:37:22.577Z,4.50
2023-05-11T19:39:49.936Z,3.53
2023-05-11T19:42:19.639Z,3.92
2023-05-11T19:44:52.342Z,3.85
2023-05-11T19:47:19.784Z,4.90
2023-05-11T19:49:47.688Z,6.13
2023-05-11T19:52:15.080Z,5.03
2023-05-11T19:54:43.129Z,5.80
2023-05-11T19:57:10.455Z,5.75
2023-05-11T19:59:37.781Z,5.78
2023-05-11T20:02:05.211Z,5.63
2023-05-11T20:04:32.501Z,5.32
2023-05-11T20:06:59.427Z,5.70
2023-05-11T20:09:26.398Z,6.43
2023-05-11T20:11:53.589Z,5.78
2023-05-11T20:14:20.468Z,5.70
2023-05-11T20:16:47.419Z,6.65
2023-05-11T20:19:14.428Z,6.50
2023-05-11T20:21:41.751Z,6.20
2023-05-11T20:24:09.014Z,7.32
2023-05-11T20:26:37.132Z,7.50
2023-05-11T20:29:04.497Z,7.80
2023-05-11T20:31:32.909Z,8.43
2023-05-11T20:36:30.744Z,7.70
2023-05-11T20:38:58.607Z,7.60
2023-05-11T20:41:25.573Z,8.20
2023-05-11T20:43:53.021Z,9.07
2023-05-11T20:46:20.697Z,9.35
2023-05-11T20:48:51.460Z,8.73
2023-05-11T20:56:17.654Z,9.88
2023-05-11T20:58:47.627Z,11.70
2023-05-11T21:01:14.786Z,12.38
2023-05-11T21:03:41.951Z,12.75
2023-05-11T21:06:08.983Z,12.18
2023-05-11T21:08:36.434Z,12.20
2023-05-11T21:11:03.528Z,12.02
2023-05-11T21:13:30.831Z,11.50
2023-05-11T21:15:57.733Z,12.65
2023-05-11T21:18:32.031Z,11.00
2023-05-11T21:20:59.611Z,11.27
2023-05-11T21:23:26.865Z,8.43
2023-05-11T21:25:58.291Z,9.73
2023-05-11T21:28:27.142Z,10.82
2023-05-11T21:30:54.792Z,11.55
2023-05-11T21:33:21.961Z,12.18
2023-05-11T21:35:48.879Z,11.02
2023-05-11T21:38:17.214Z,10.07
2023-05-11T21:40:56.567Z,9.68
2023-05-11T21:43:23.456Z,11.15
2023-05-11T21:45:51.157Z,11.90
2023-05-11T21:48:18.237Z,11.68
2023-05-11T21:50:45.215Z,11.80
2023-05-11T21:53:12.171Z,13.52
2023-05-11T21:55:39.075Z,12.38
2023-05-11T21:58:06.110Z,13.80
2023-05-11T22:00:34.882Z,13.07
2023-05-11T22:03:02.073Z,12.40
2023-05-11T22:05:29.089Z,12.60
2023-05-11T22:08:06.681Z,13.27
2023-05-11T22:10:40.624Z,15.10
2023-05-11T22:13:07.513Z,14.98
2023-05-11T22:15:43.239Z,15.32
2023-05-11T22:18:10.174Z,14.77
2023-05-11T22:20:37.088Z,15.75
2023-05-11T22:23:04.619Z,14.98
2023-05-11T22:25:32.257Z,14.95
2023-05-11T22:27:59.249Z,15.90
2023-05-11T22:30:26.225Z,16.08
2023-05-11T22:32:53.276Z,14.63
2023-05-11T22:35:20.327Z,14.73
2023-05-11T22:37:47.334Z,15.23
2023-05-11T22:40:14.344Z,14.23
2023-05-11T22:42:41.763Z,12.70
2023-05-11T22:45:09.264Z,13.45
2023-05-11T22:47:36.164Z,12.93
2023-05-11T22:50:03.745Z,12.80
2023-05-11T22:52:30.730Z,13.82
2023-05-11T22:54:59.400Z,14.50
2023-05-11T22:57:26.995Z,13.57
2023-05-11T22:59:53.948Z,12.77
2023-05-11T23:02:21.192Z,12.65
2023-05-11T23:04:52.350Z,12.40
2023-05-11T23:07:20.001Z,12.65
2023-05-11T23:09:47.155Z,12.02
2023-05-11T23:12:14.072Z,11.57
2023-05-11T23:14:41.973Z,12.93
2023-05-11T23:17:09.213Z,10.85
2023-05-11T23:19:36.295Z,12.43
2023-05-11T23:22:03.422Z,13.15
2023-05-11T23:24:30.632Z,14.07
2023-05-11T23:26:57.619Z,13.00
2023-05-11T23:29:24.749Z,11.77
2023-05-11T23:31:51.772Z,11.90
2023-05-11T23:34:19.254Z,11.80
2023-05-11T23:36:46.752Z,10.65
2023-05-11T23:39:13.869Z,10.48
2023-05-11T23:41:40.818Z,12.10
2023-05-11T23:44:07.836Z,11.15
2023-05-11T23:46:34.816Z,11.50
2023-05-11T23:49:02.041Z,10.40
2023-05-11T23:51:29.004Z,11.30
2023-05-11T23:53:55.900Z,10.68
2023-05-11T23:56:22.843Z,11.20
2023-05-11T23:58:50.583Z,11.02
